sensor_id;sensor_type;location;lat;lon;timestamp;pressure;altitude;pressure_sealevel;temperature;humidity
21240;BME280;10778;48.962;9.018;2023-01-29T00:01:04;100282.19;;;-1.37;85.46
21240;BME280;10778;48.962;9.018;2023-01-29T00:03:30;100283.91;;;-1.38;85.60
21240;BME280;10778;48.962;9.018;2023-01-29T00:05:56;100287.41;;;-1.40;85.49
21240;BME280;10778;48.962;9.018;2023-01-29T00:08:22;100282.22;;;-1.39;85.31
21240;BME280;10778;48.962;9.018;2023-01-29T00:10:48;100280.63;;;-1.45;84.26
21240;BME280;10778;48.962;9.018;2023-01-29T00:13:14;100281.41;;;-1.41;85.43
21240;BME280;10778;48.962;9.018;2023-01-29T00:15:40;100275.41;;;-1.41;85.48
21240;BME280;10778;48.962;9.018;2023-01-29T00:18:06;100275.41;;;-1.43;85.77
21240;BME280;10778;48.962;9.018;2023-01-29T00:20:32;100276.22;;;-1.39;85.66
21240;BME280;10778;48.962;9.018;2023-01-29T00:22:59;100271.03;;;-1.39;84.26
21240;BME280;10778;48.962;9.018;2023-01-29T00:25:25;100281.44;;;-1.42;83.80
21240;BME280;10778;48.962;9.018;2023-01-29T00:27:50;100269.31;;;-1.39;85.11
21240;BME280;10778;48.962;9.018;2023-01-29T00:30:17;100281.41;;;-1.41;85.40
21240;BME280;10778;48.962;9.018;2023-01-29T00:32:44;100272.00;;;-1.44;84.24
21240;BME280;10778;48.962;9.018;2023-01-29T00:35:11;100273.81;;;-1.49;85.37
21240;BME280;10778;48.962;9.018;2023-01-29T00:37:37;100275.56;;;-1.51;84.97
21240;BME280;10778;48.962;9.018;2023-01-29T00:40:03;100275.56;;;-1.49;85.58
21240;BME280;10778;48.962;9.018;2023-01-29T00:42:30;100282.41;;;-1.48;86.34
21240;BME280;10778;48.962;9.018;2023-01-29T00:45:14;100289.28;;;-1.49;86.51
21240;BME280;10778;48.962;9.018;2023-01-29T00:47:40;100286.72;;;-1.49;86.76
21240;BME280;10778;48.962;9.018;2023-01-29T00:50:09;100283.25;;;-1.48;86.06
21240;BME280;10778;48.962;9.018;2023-01-29T00:52:35;100293.56;;;-1.48;86.15
21240;BME280;10778;48.962;9.018;2023-01-29T00:55:04;100286.84;;;-1.53;86.30
21240;BME280;10778;48.962;9.018;2023-01-29T00:57:32;100279.03;;;-1.52;86.79
21240;BME280;10778;48.962;9.018;2023-01-29T00:59:59;100284.34;;;-1.58;87.17
21240;BME280;10778;48.962;9.018;2023-01-29T01:02:26;100287.06;;;-1.66;86.65
21240;BME280;10778;48.962;9.018;2023-01-29T01:05:13;100293.88;;;-1.62;87.14
21240;BME280;10778;48.962;9.018;2023-01-29T01:07:47;100292.16;;;-1.63;87.56
21240;BME280;10778;48.962;9.018;2023-01-29T01:10:17;100278.38;;;-1.60;87.79
21240;BME280;10778;48.962;9.018;2023-01-29T01:12:56;100277.56;;;-1.64;87.09
21240;BME280;10778;48.962;9.018;2023-01-29T01:15:28;100275.94;;;-1.68;87.19
21240;BME280;10778;48.962;9.018;2023-01-29T01:17:56;100268.22;;;-1.69;87.48
21240;BME280;10778;48.962;9.018;2023-01-29T01:20:24;100272.56;;;-1.73;87.13
21240;BME280;10778;48.962;9.018;2023-01-29T01:22:53;100275.13;;;-1.72;86.32
21240;BME280;10778;48.962;9.018;2023-01-29T01:25:20;100275.06;;;-1.68;86.19
21240;BME280;10778;48.962;9.018;2023-01-29T01:27:46;100276.81;;;-1.69;86.85
21240;BME280;10778;48.962;9.018;2023-01-29T01:30:14;100285.31;;;-1.65;86.28
21240;BME280;10778;48.962;9.018;2023-01-29T01:32:41;100281.91;;;-1.66;86.45
21240;BME280;10778;48.962;9.018;2023-01-29T01:35:09;100282.75;;;-1.65;87.62
21240;BME280;10778;48.962;9.018;2023-01-29T01:37:36;100288.03;;;-1.72;87.70
21240;BME280;10778;48.962;9.018;2023-01-29T01:40:06;100282.94;;;-1.75;87.80
21240;BME280;10778;48.962;9.018;2023-01-29T01:42:38;100274.31;;;-1.74;86.45
21240;BME280;10778;48.962;9.018;2023-01-29T01:45:07;100278.66;;;-1.76;85.88
21240;BME280;10778;48.962;9.018;2023-01-29T01:47:42;100280.38;;;-1.76;86.29
21240;BME280;10778;48.962;9.018;2023-01-29T01:50:13;100276.81;;;-1.69;86.59
21240;BME280;10778;48.962;9.018;2023-01-29T01:52:45;100276.03;;;-1.73;86.39
21240;BME280;10778;48.962;9.018;2023-01-29T01:55:16;100277.78;;;-1.75;86.05
21240;BME280;10778;48.962;9.018;2023-01-29T01:57:46;100266.59;;;-1.74;86.49
21240;BME280;10778;48.962;9.018;2023-01-29T02:00:14;100261.44;;;-1.75;85.21
21240;BME280;10778;48.962;9.018;2023-01-29T02:02:43;100263.25;;;-1.79;85.13
21240;BME280;10778;48.962;9.018;2023-01-29T02:05:31;100270.03;;;-1.75;85.58
21240;BME280;10778;48.962;9.018;2023-01-29T02:08:29;100270.13;;;-1.78;86.74
21240;BME280;10778;48.962;9.018;2023-01-29T02:11:15;100278.75;;;-1.80;86.81
21240;BME280;10778;48.962;9.018;2023-01-29T02:13:43;100277.19;;;-1.88;86.59
21240;BME280;10778;48.962;9.018;2023-01-29T02:16:09;100272.94;;;-1.90;86.26
21240;BME280;10778;48.962;9.018;2023-01-29T02:18:35;100265.03;;;-1.82;87.07
21240;BME280;10778;48.962;9.018;2023-01-29T02:24:19;100279.50;;;-1.75;87.53
21240;BME280;10778;48.962;9.018;2023-01-29T02:27:02;100280.38;;;-1.76;87.67
21240;BME280;10778;48.962;9.018;2023-01-29T02:29:37;100275.63;;;-1.96;87.41
21240;BME280;10778;48.962;9.018;2023-01-29T02:34:53;100282.53;;;-1.98;86.67
21240;BME280;10778;48.962;9.018;2023-01-29T02:37:51;100282.66;;;-2.05;86.03
21240;BME280;10778;48.962;9.018;2023-01-29T02:40:39;100273.94;;;-1.99;85.82
21240;BME280;10778;48.962;9.018;2023-01-29T02:54:27;100260.09;;;-1.93;85.32
21240;BME280;10778;48.962;9.018;2023-01-29T02:56:57;100262.69;;;-1.95;87.13
21240;BME280;10778;48.962;9.018;2023-01-29T02:59:38;100274.75;;;-1.95;87.48
21240;BME280;10778;48.962;9.018;2023-01-29T03:02:10;100267.75;;;-1.90;87.15
21240;BME280;10778;48.962;9.018;2023-01-29T03:04:43;100271.50;;;-2.05;87.03
21240;BME280;10778;48.962;9.018;2023-01-29T03:07:17;100268.91;;;-2.05;86.97
21240;BME280;10778;48.962;9.018;2023-01-29T03:10:28;100270.78;;;-2.13;87.04
21240;BME280;10778;48.962;9.018;2023-01-29T03:13:01;100271.38;;;-2.01;86.62
21240;BME280;10778;48.962;9.018;2023-01-29T03:15:33;100266.34;;;-2.07;86.04
21240;BME280;10778;48.962;9.018;2023-01-29T03:18:24;100269.63;;;-1.98;84.71
21240;BME280;10778;48.962;9.018;2023-01-29T03:21:05;100274.72;;;-1.94;86.61
21240;BME280;10778;48.962;9.018;2023-01-29T03:23:54;100263.44;;;-1.90;87.43
21240;BME280;10778;48.962;9.018;2023-01-29T03:26:41;100265.25;;;-1.95;86.69
21240;BME280;10778;48.962;9.018;2023-01-29T03:29:33;100267.09;;;-2.00;87.83
21240;BME280;10778;48.962;9.018;2023-01-29T03:32:22;100263.66;;;-2.01;87.63
21240;BME280;10778;48.962;9.018;2023-01-29T03:34:56;100263.56;;;-1.94;88.49
21240;BME280;10778;48.962;9.018;2023-01-29T03:37:31;100266.16;;;-1.97;88.02
21240;BME280;10778;48.962;9.018;2023-01-29T03:40:03;100268.72;;;-1.94;88.72
21240;BME280;10778;48.962;9.018;2023-01-29T03:43:04;100260.91;;;-1.91;88.48
21240;BME280;10778;48.962;9.018;2023-01-29T03:45:38;100261.78;;;-1.92;88.70
21240;BME280;10778;48.962;9.018;2023-01-29T03:51:57;100267.84;;;-1.93;87.90
21240;BME280;10778;48.962;9.018;2023-01-29T03:54:27;100267.84;;;-1.93;87.95
21240;BME280;10778;48.962;9.018;2023-01-29T03:57:13;100266.16;;;-1.96;88.60
21240;BME280;10778;48.962;9.018;2023-01-29T04:02:31;100261.88;;;-1.97;89.40
21240;BME280;10778;48.962;9.018;2023-01-29T04:05:12;100267.03;;;-1.98;89.35
21240;BME280;10778;48.962;9.018;2023-01-29T04:07:55;100269.63;;;-1.98;89.69
21240;BME280;10778;48.962;9.018;2023-01-29T04:10:25;100269.69;;;-2.00;89.05
21240;BME280;10778;48.962;9.018;2023-01-29T04:13:08;100270.63;;;-2.04;89.73
21240;BME280;10778;48.962;9.018;2023-01-29T04:15:44;100268.94;;;-2.07;89.83
21240;BME280;10778;48.962;9.018;2023-01-29T04:18:11;100274.22;;;-2.13;91.40
21240;BME280;10778;48.962;9.018;2023-01-29T04:21:00;100272.53;;;-2.17;91.03
21240;BME280;10778;48.962;9.018;2023-01-29T04:23:27;100282.88;;;-2.17;90.94
21240;BME280;10778;48.962;9.018;2023-01-29T04:26:05;100279.53;;;-2.24;90.81
21240;BME280;10778;48.962;9.018;2023-01-29T04:32:01;100275.88;;;-2.10;90.98
21240;BME280;10778;48.962;9.018;2023-01-29T04:37:26;100279.31;;;-2.10;90.56
21240;BME280;10778;48.962;9.018;2023-01-29T04:40:07;100282.91;;;-2.19;91.36
21240;BME280;10778;48.962;9.018;2023-01-29T04:45:19;100281.94;;;-2.13;92.20
21240;BME280;10778;48.962;9.018;2023-01-29T04:50:37;100278.66;;;-2.21;90.43
21240;BME280;10778;48.962;9.018;2023-01-29T04:53:15;100293.19;;;-2.17;89.65
21240;BME280;10778;48.962;9.018;2023-01-29T04:55:49;100284.53;;;-2.15;89.71
21240;BME280;10778;48.962;9.018;2023-01-29T05:00:47;100273.28;;;-2.10;90.31
21240;BME280;10778;48.962;9.018;2023-01-29T05:03:15;100275.88;;;-2.10;90.38
21240;BME280;10778;48.962;9.018;2023-01-29T05:05:46;100271.72;;;-2.18;89.40
21240;BME280;10778;48.962;9.018;2023-01-29T05:08:15;100269.97;;;-2.17;90.81
21240;BME280;10778;48.962;9.018;2023-01-29T05:10:43;100271.88;;;-2.27;90.69
21240;BME280;10778;48.962;9.018;2023-01-29T05:13:12;100273.69;;;-2.34;90.25
21240;BME280;10778;48.962;9.018;2023-01-29T05:15:43;100280.63;;;-2.36;91.27
21240;BME280;10778;48.962;9.018;2023-01-29T05:18:11;100285.78;;;-2.36;90.98
21240;BME280;10778;48.962;9.018;2023-01-29T05:20:39;100292.56;;;-2.30;90.97
21240;BME280;10778;48.962;9.018;2023-01-29T05:23:24;100301.16;;;-2.31;90.86
21240;BME280;10778;48.962;9.018;2023-01-29T05:25:50;100294.41;;;-2.38;89.01
21240;BME280;10778;48.962;9.018;2023-01-29T05:28:17;100281.41;;;-2.32;89.78
21240;BME280;10778;48.962;9.018;2023-01-29T05:30:47;100273.66;;;-2.31;88.80
21240;BME280;10778;48.962;9.018;2023-01-29T05:33:17;100278.84;;;-2.34;88.49
21240;BME280;10778;48.962;9.018;2023-01-29T05:35:43;100277.06;;;-2.29;89.23
21240;BME280;10778;48.962;9.018;2023-01-29T05:38:10;100260.75;;;-2.29;87.71
21240;BME280;10778;48.962;9.018;2023-01-29T05:40:36;100250.69;;;-2.45;87.83
21240;BME280;10778;48.962;9.018;2023-01-29T05:43:03;100236.06;;;-2.43;88.28
21240;BME280;10778;48.962;9.018;2023-01-29T05:45:29;100224.72;;;-2.34;88.43
21240;BME280;10778;48.962;9.018;2023-01-29T05:47:59;100235.09;;;-2.37;88.47
21240;BME280;10778;48.962;9.018;2023-01-29T05:50:26;100242.00;;;-2.37;87.31
21240;BME280;10778;48.962;9.018;2023-01-29T05:52:59;100262.56;;;-2.34;87.06
21240;BME280;10778;48.962;9.018;2023-01-29T05:55:26;100262.56;;;-2.36;86.92
21240;BME280;10778;48.962;9.018;2023-01-29T05:57:54;100255.75;;;-2.38;87.21
21240;BME280;10778;48.962;9.018;2023-01-29T06:00:20;100249.66;;;-2.34;87.47
21240;BME280;10778;48.962;9.018;2023-01-29T06:02:47;100255.75;;;-2.38;87.77
21240;BME280;10778;48.962;9.018;2023-01-29T06:05:14;100261.63;;;-2.30;88.29
21240;BME280;10778;48.962;9.018;2023-01-29T06:07:40;100257.34;;;-2.31;88.02
21240;BME280;10778;48.962;9.018;2023-01-29T06:10:16;100267.63;;;-2.30;87.91
21240;BME280;10778;48.962;9.018;2023-01-29T06:12:43;100259.84;;;-2.28;88.13
21240;BME280;10778;48.962;9.018;2023-01-29T06:15:10;100248.66;;;-2.25;88.03
21240;BME280;10778;48.962;9.018;2023-01-29T06:17:37;100252.06;;;-2.25;88.93
21240;BME280;10778;48.962;9.018;2023-01-29T06:20:04;100251.22;;;-2.25;87.99
21240;BME280;10778;48.962;9.018;2023-01-29T06:22:32;100263.25;;;-2.26;88.62
21240;BME280;10778;48.962;9.018;2023-01-29T06:24:58;100261.59;;;-2.29;89.19
21240;BME280;10778;48.962;9.018;2023-01-29T06:27:24;100266.00;;;-2.35;90.24
21240;BME280;10778;48.962;9.018;2023-01-29T06:29:50;100263.50;;;-2.38;91.48
21240;BME280;10778;48.962;9.018;2023-01-29T06:32:16;100255.78;;;-2.40;91.26
21240;BME280;10778;48.962;9.018;2023-01-29T06:34:42;100261.06;;;-2.46;91.52
21240;BME280;10778;48.962;9.018;2023-01-29T06:37:08;100264.59;;;-2.53;90.75
21240;BME280;10778;48.962;9.018;2023-01-29T06:39:34;100256.91;;;-2.57;90.91
21240;BME280;10778;48.962;9.018;2023-01-29T06:42:00;100258.63;;;-2.57;90.42
21240;BME280;10778;48.962;9.018;2023-01-29T06:44:26;100256.91;;;-2.57;90.16
21240;BME280;10778;48.962;9.018;2023-01-29T06:46:52;100255.16;;;-2.54;91.05
21240;BME280;10778;48.962;9.018;2023-01-29T06:49:18;100258.56;;;-2.52;91.34
21240;BME280;10778;48.962;9.018;2023-01-29T06:51:44;100260.34;;;-2.56;90.20
21240;BME280;10778;48.962;9.018;2023-01-29T06:54:10;100263.81;;;-2.59;91.07
21240;BME280;10778;48.962;9.018;2023-01-29T06:56:36;100263.81;;;-2.59;91.29
21240;BME280;10778;48.962;9.018;2023-01-29T06:59:02;100257.03;;;-2.63;91.06
21240;BME280;10778;48.962;9.018;2023-01-29T07:01:28;100259.41;;;-2.52;90.79
21240;BME280;10778;48.962;9.018;2023-01-29T07:03:54;100261.13;;;-2.52;90.35
21240;BME280;10778;48.962;9.018;2023-01-29T07:06:20;100254.22;;;-2.50;89.15
21240;BME280;10778;48.962;9.018;2023-01-29T07:08:51;100254.91;;;-2.40;89.89
21240;BME280;10778;48.962;9.018;2023-01-29T07:11:17;100264.28;;;-2.35;89.55
21240;BME280;10778;48.962;9.018;2023-01-29T07:13:43;100271.16;;;-2.35;89.71
21240;BME280;10778;48.962;9.018;2023-01-29T07:16:09;100275.53;;;-2.40;89.62
21240;BME280;10778;48.962;9.018;2023-01-29T07:18:35;100278.03;;;-2.36;89.54
21240;BME280;10778;48.962;9.018;2023-01-29T07:21:05;100278.16;;;-2.42;90.16
21240;BME280;10778;48.962;9.018;2023-01-29T07:23:33;100279.78;;;-2.36;90.52
21240;BME280;10778;48.962;9.018;2023-01-29T07:26:04;100281.41;;;-2.31;90.05
21240;BME280;10778;48.962;9.018;2023-01-29T07:28:30;100286.50;;;-2.29;90.17
21240;BME280;10778;48.962;9.018;2023-01-29T07:30:59;100285.63;;;-2.26;91.21
21240;BME280;10778;48.962;9.018;2023-01-29T07:33:25;100287.13;;;-2.15;91.57
21240;BME280;10778;48.962;9.018;2023-01-29T07:35:52;100280.13;;;-2.08;90.95
21240;BME280;10778;48.962;9.018;2023-01-29T07:38:18;100279.25;;;-2.05;91.05
21240;BME280;10778;48.962;9.018;2023-01-29T07:40:44;100294.66;;;-2.04;89.92
21240;BME280;10778;48.962;9.018;2023-01-29T07:43:11;100288.63;;;-2.03;88.44
21240;BME280;10778;48.962;9.018;2023-01-29T07:45:38;100285.97;;;-2.00;87.70
21240;BME280;10778;48.962;9.018;2023-01-29T07:48:06;100289.34;;;-1.94;88.20
21240;BME280;10778;48.962;9.018;2023-01-29T07:50:34;100295.13;;;-1.83;86.89
21240;BME280;10778;48.962;9.018;2023-01-29T07:53:01;100292.66;;;-1.88;85.45
21240;BME280;10778;48.962;9.018;2023-01-29T07:55:27;100297.97;;;-1.97;85.57
21240;BME280;10778;48.962;9.018;2023-01-29T07:57:57;100305.72;;;-1.98;85.49
21240;BME280;10778;48.962;9.018;2023-01-29T08:00:23;100309.09;;;-1.93;84.82
21240;BME280;10778;48.962;9.018;2023-01-29T08:02:50;100320.09;;;-1.83;84.60
21240;BME280;10778;48.962;9.018;2023-01-29T08:05:16;100330.34;;;-1.79;85.09
21240;BME280;10778;48.962;9.018;2023-01-29T08:07:42;100332.78;;;-1.73;86.17
21240;BME280;10778;48.962;9.018;2023-01-29T08:10:09;100324.28;;;-1.78;86.28
21240;BME280;10778;48.962;9.018;2023-01-29T08:12:35;100328.78;;;-1.89;86.78
21240;BME280;10778;48.962;9.018;2023-01-29T08:15:01;100323.44;;;-1.78;86.40
21240;BME280;10778;48.962;9.018;2023-01-29T08:17:27;100314.72;;;-1.71;86.23
21240;BME280;10778;48.962;9.018;2023-01-29T08:19:53;100315.56;;;-1.72;86.18
21240;BME280;10778;48.962;9.018;2023-01-29T08:22:19;100324.03;;;-1.65;85.25
21240;BME280;10778;48.962;9.018;2023-01-29T08:24:45;100331.97;;;-1.76;85.53
21240;BME280;10778;48.962;9.018;2023-01-29T08:27:11;100328.50;;;-1.74;86.01
21240;BME280;10778;48.962;9.018;2023-01-29T08:29:37;100320.84;;;-1.77;85.22
21240;BME280;10778;48.962;9.018;2023-01-29T08:32:03;100327.59;;;-1.71;85.22
21240;BME280;10778;48.962;9.018;2023-01-29T08:34:29;100323.22;;;-1.67;84.87
21240;BME280;10778;48.962;9.018;2023-01-29T08:36:55;100324.63;;;-1.51;85.52
21240;BME280;10778;48.962;9.018;2023-01-29T08:39:21;100327.25;;;-1.54;84.62
21240;BME280;10778;48.962;9.018;2023-01-29T08:41:48;100327.03;;;-1.43;84.43
21240;BME280;10778;48.962;9.018;2023-01-29T08:44:13;100325.13;;;-1.33;83.43
21240;BME280;10778;48.962;9.018;2023-01-29T08:46:39;100327.44;;;-1.21;84.30
21240;BME280;10778;48.962;9.018;2023-01-29T08:49:06;100324.00;;;-1.21;83.89
21240;BME280;10778;48.962;9.018;2023-01-29T08:51:33;100318.69;;;-1.13;83.52
21240;BME280;10778;48.962;9.018;2023-01-29T08:53:59;100323.50;;;-0.98;82.32
21240;BME280;10778;48.962;9.018;2023-01-29T08:56:25;100321.88;;;-1.01;81.07
21240;BME280;10778;48.962;9.018;2023-01-29T08:58:51;100320.97;;;-0.99;81.40
21240;BME280;10778;48.962;9.018;2023-01-29T09:01:17;100322.06;;;-1.10;81.39
21240;BME280;10778;48.962;9.018;2023-01-29T09:03:43;100327.22;;;-1.10;82.12
21240;BME280;10778;48.962;9.018;2023-01-29T09:06:10;100337.38;;;-1.01;82.10
21240;BME280;10778;48.962;9.018;2023-01-29T09:08:37;100330.66;;;-0.72;82.44
21240;BME280;10778;48.962;9.018;2023-01-29T09:11:03;100330.56;;;-0.67;81.19
21240;BME280;10778;48.962;9.018;2023-01-29T09:13:29;100334.66;;;-0.56;81.65
21240;BME280;10778;48.962;9.018;2023-01-29T09:16:00;100336.56;;;-0.65;80.95
21240;BME280;10778;48.962;9.018;2023-01-29T09:18:27;100328.63;;;-0.57;80.41
21240;BME280;10778;48.962;9.018;2023-01-29T09:20:53;100331.94;;;-0.52;80.43
21240;BME280;10778;48.962;9.018;2023-01-29T09:23:19;100337.06;;;-0.50;80.16
21240;BME280;10778;48.962;9.018;2023-01-29T09:25:45;100339.75;;;-0.19;80.50
21240;BME280;10778;48.962;9.018;2023-01-29T09:28:11;100343.59;;;-0.35;77.84
21240;BME280;10778;48.962;9.018;2023-01-29T09:30:37;100342.03;;;0.89;88.73
21240;BME280;10778;48.962;9.018;2023-01-29T09:33:04;100320.94;;;1.01;80.47
21240;BME280;10778;48.962;9.018;2023-01-29T09:35:31;100316.50;;;1.33;77.62
21240;BME280;10778;48.962;9.018;2023-01-29T09:37:57;100299.00;;;1.67;73.41
21240;BME280;10778;48.962;9.018;2023-01-29T09:42:57;100290.19;;;2.69;69.49
21240;BME280;10778;48.962;9.018;2023-01-29T09:45:27;100281.56;;;2.69;70.92
21240;BME280;10778;48.962;9.018;2023-01-29T09:47:59;100278.16;;;3.77;65.42
21240;BME280;10778;48.962;9.018;2023-01-29T09:53:18;100274.78;;;2.87;61.74
21240;BME280;10778;48.962;9.018;2023-01-29T09:55:50;100258.97;;;2.71;63.94
21240;BME280;10778;48.962;9.018;2023-01-29T09:58:28;100261.22;;;2.09;64.49
21240;BME280;10778;48.962;9.018;2023-01-29T10:01:11;100268.47;;;1.48;68.48
21240;BME280;10778;48.962;9.018;2023-01-29T10:03:58;100272.47;;;1.32;69.89
21240;BME280;10778;48.962;9.018;2023-01-29T10:12:04;100294.13;;;1.02;71.99
21240;BME280;10778;48.962;9.018;2023-01-29T10:15:27;100294.94;;;1.04;73.29
21240;BME280;10778;48.962;9.018;2023-01-29T10:20:45;100272.97;;;0.59;73.01
21240;BME280;10778;48.962;9.018;2023-01-29T10:23:25;100266.34;;;0.79;74.21
21240;BME280;10778;48.962;9.018;2023-01-29T10:25:52;100270.69;;;0.78;73.50
21240;BME280;10778;48.962;9.018;2023-01-29T10:28:23;100273.69;;;0.93;73.46
21240;BME280;10778;48.962;9.018;2023-01-29T10:30:56;100276.00;;;0.74;71.57
21240;BME280;10778;48.962;9.018;2023-01-29T10:33:32;100271.63;;;0.76;71.57
21240;BME280;10778;48.962;9.018;2023-01-29T10:36:04;100268.38;;;0.67;72.94
21240;BME280;10778;48.962;9.018;2023-01-29T10:38:51;100275.03;;;0.76;72.73
21240;BME280;10778;48.962;9.018;2023-01-29T10:41:41;100287.47;;;0.65;73.30
21240;BME280;10778;48.962;9.018;2023-01-29T10:47:06;100295.19;;;0.36;74.37
21240;BME280;10778;48.962;9.018;2023-01-29T10:55:02;100283.41;;;0.56;76.06
21240;BME280;10778;48.962;9.018;2023-01-29T11:00:25;100275.94;;;0.75;74.41
21240;BME280;10778;48.962;9.018;2023-01-29T11:02:52;100281.69;;;0.85;73.84
21240;BME280;10778;48.962;9.018;2023-01-29T11:05:36;100276.19;;;0.96;74.20
21240;BME280;10778;48.962;9.018;2023-01-29T11:08:18;100276.00;;;1.02;73.99
21240;BME280;10778;48.962;9.018;2023-01-29T11:13:21;100269.44;;;0.62;74.54
21240;BME280;10778;48.962;9.018;2023-01-29T11:15:51;100250.22;;;0.69;72.66
21240;BME280;10778;48.962;9.018;2023-01-29T11:18:17;100249.41;;;0.95;72.69
21240;BME280;10778;48.962;9.018;2023-01-29T11:20:45;100244.22;;;0.97;73.74
21240;BME280;10778;48.962;9.018;2023-01-29T11:23:28;100223.13;;;1.08;74.14
21240;BME280;10778;48.962;9.018;2023-01-29T11:25:56;100234.78;;;0.94;73.72
21240;BME280;10778;48.962;9.018;2023-01-29T11:28:43;100225.75;;;1.06;72.04
21240;BME280;10778;48.962;9.018;2023-01-29T11:33:47;100217.56;;;1.20;73.59
21240;BME280;10778;48.962;9.018;2023-01-29T11:36:35;100233.75;;;1.00;73.56
21240;BME280;10778;48.962;9.018;2023-01-29T11:39:20;100224.53;;;0.90;73.95
21240;BME280;10778;48.962;9.018;2023-01-29T11:42:02;100215.84;;;0.64;73.22
21240;BME280;10778;48.962;9.018;2023-01-29T11:47:24;100210.66;;;0.92;71.09
21240;BME280;10778;48.962;9.018;2023-01-29T11:49:53;100205.31;;;1.24;70.43
21240;BME280;10778;48.962;9.018;2023-01-29T11:52:26;100204.00;;;1.63;68.86
21240;BME280;10778;48.962;9.018;2023-01-29T11:55:01;100199.84;;;1.59;71.59
21240;BME280;10778;48.962;9.018;2023-01-29T11:57:32;100196.72;;;1.49;71.96
21240;BME280;10778;48.962;9.018;2023-01-29T12:00:28;100191.19;;;1.58;70.19
21240;BME280;10778;48.962;9.018;2023-01-29T12:03:06;100183.03;;;1.69;71.25
21240;BME280;10778;48.962;9.018;2023-01-29T12:05:38;100178.03;;;1.88;69.85
21240;BME280;10778;48.962;9.018;2023-01-29T12:08:15;100174.72;;;1.84;70.66
21240;BME280;10778;48.962;9.018;2023-01-29T12:10:42;100164.84;;;1.94;69.66
21240;BME280;10778;48.962;9.018;2023-01-29T12:15:39;100147.78;;;2.11;68.26
21240;BME280;10778;48.962;9.018;2023-01-29T12:18:40;100149.09;;;2.23;68.96
21240;BME280;10778;48.962;9.018;2023-01-29T12:21:17;100137.47;;;2.76;65.48
21240;BME280;10778;48.962;9.018;2023-01-29T12:26:50;100132.09;;;2.36;70.04
21240;BME280;10778;48.962;9.018;2023-01-29T12:29:39;100134.19;;;2.04;69.58
21240;BME280;10778;48.962;9.018;2023-01-29T12:35:11;100119.09;;;1.68;68.27
21240;BME280;10778;48.962;9.018;2023-01-29T12:38:03;100109.72;;;1.40;71.27
21240;BME280;10778;48.962;9.018;2023-01-29T12:40:48;100103.00;;;1.58;72.89
21240;BME280;10778;48.962;9.018;2023-01-29T12:43:28;100090.06;;;1.82;72.59
21240;BME280;10778;48.962;9.018;2023-01-29T12:45:57;100090.97;;;1.32;70.92
21240;BME280;10778;48.962;9.018;2023-01-29T12:48:29;100080.41;;;1.38;71.43
21240;BME280;10778;48.962;9.018;2023-01-29T12:51:04;100076.22;;;1.34;73.56
21240;BME280;10778;48.962;9.018;2023-01-29T12:53:35;100084.50;;;1.44;73.17
21240;BME280;10778;48.962;9.018;2023-01-29T12:56:14;100073.78;;;1.54;70.36
21240;BME280;10778;48.962;9.018;2023-01-29T12:58:44;100073.75;;;1.78;71.91
21240;BME280;10778;48.962;9.018;2023-01-29T13:01:26;100068.63;;;1.99;72.26
21240;BME280;10778;48.962;9.018;2023-01-29T13:04:04;100072.94;;;2.22;70.10
21240;BME280;10778;48.962;9.018;2023-01-29T13:06:39;100061.28;;;2.33;69.99
21240;BME280;10778;48.962;9.018;2023-01-29T13:09:12;100063.47;;;2.21;69.43
21240;BME280;10778;48.962;9.018;2023-01-29T13:11:51;100066.69;;;1.58;69.37
21240;BME280;10778;48.962;9.018;2023-01-29T13:14:21;100051.22;;;1.79;71.41
21240;BME280;10778;48.962;9.018;2023-01-29T13:16:56;100057.53;;;1.95;71.67
21240;BME280;10778;48.962;9.018;2023-01-29T13:19:30;100060.47;;;1.86;72.85
21240;BME280;10778;48.962;9.018;2023-01-29T13:22:00;100061.88;;;1.71;71.69
21240;BME280;10778;48.962;9.018;2023-01-29T13:24:37;100067.59;;;1.81;72.45
21240;BME280;10778;48.962;9.018;2023-01-29T13:27:04;100070.06;;;1.84;70.63
21240;BME280;10778;48.962;9.018;2023-01-29T13:29:32;100065.50;;;1.67;72.92
21240;BME280;10778;48.962;9.018;2023-01-29T13:32:02;100062.56;;;2.22;71.62
21240;BME280;10778;48.962;9.018;2023-01-29T13:34:36;100066.84;;;2.87;69.34
21240;BME280;10778;48.962;9.018;2023-01-29T13:37:22;100069.72;;;2.81;68.41
21240;BME280;10778;48.962;9.018;2023-01-29T13:39:51;100069.25;;;2.71;68.08
21240;BME280;10778;48.962;9.018;2023-01-29T13:42:20;100060.84;;;2.87;68.19
21240;BME280;10778;48.962;9.018;2023-01-29T13:44:49;100060.56;;;2.72;68.65
21240;BME280;10778;48.962;9.018;2023-01-29T13:47:23;100059.59;;;2.95;67.62
21240;BME280;10778;48.962;9.018;2023-01-29T13:50:03;100061.38;;;2.73;68.46
21240;BME280;10778;48.962;9.018;2023-01-29T13:55:06;100053.28;;;2.37;69.00
21240;BME280;10778;48.962;9.018;2023-01-29T14:10:36;100050.22;;;1.59;70.43
21240;BME280;10778;48.962;9.018;2023-01-29T14:15:36;100043.50;;;1.53;71.69
21240;BME280;10778;48.962;9.018;2023-01-29T14:18:14;100028.47;;;1.63;71.04
21240;BME280;10778;48.962;9.018;2023-01-29T14:20:52;100035.22;;;1.44;71.48
21240;BME280;10778;48.962;9.018;2023-01-29T14:23:35;100039.75;;;1.38;72.25
21240;BME280;10778;48.962;9.018;2023-01-29T14:26:29;100026.00;;;1.36;73.50
21240;BME280;10778;48.962;9.018;2023-01-29T14:31:36;100022.09;;;1.94;70.82
21240;BME280;10778;48.962;9.018;2023-01-29T14:34:12;100021.25;;;1.94;69.47
21240;BME280;10778;48.962;9.018;2023-01-29T14:36:41;100022.69;;;1.56;70.62
21240;BME280;10778;48.962;9.018;2023-01-29T14:39:28;100025.31;;;1.55;71.62
21240;BME280;10778;48.962;9.018;2023-01-29T14:41:56;100023.88;;;1.48;72.67
21240;BME280;10778;48.962;9.018;2023-01-29T14:49:58;100019.16;;;2.04;71.03
21240;BME280;10778;48.962;9.018;2023-01-29T14:52:38;100025.13;;;2.28;69.58
21240;BME280;10778;48.962;9.018;2023-01-29T14:55:17;100024.56;;;2.20;69.27
21240;BME280;10778;48.962;9.018;2023-01-29T14:57:49;100015.22;;;2.59;68.15
21240;BME280;10778;48.962;9.018;2023-01-29T15:00:26;100024.69;;;2.80;69.02
21240;BME280;10778;48.962;9.018;2023-01-29T15:02:53;100026.81;;;2.70;68.57